sensor_id;sensor_type;location;lat;lon;timestamp;pressure;altitude;pressure_sealevel;temperature;humidity
38558;BME280;24333;42.626;23.308;2022-12-29T02:44:06;93052.56;;;3.27;100.00
38558;BME280;24333;42.626;23.308;2022-12-29T02:47:30;93029.13;;;3.05;100.00
38558;BME280;24333;42.626;23.308;2022-12-29T02:50:06;93040.91;;;3.18;100.00
38558;BME280;24333;42.626;23.308;2022-12-29T02:52:39;93041.09;;;3.22;100.00
38558;BME280;24333;42.626;23.308;2022-12-29T02:55:08;93044.53;;;3.36;100.00
38558;BME280;24333;42.626;23.308;2022-12-29T02:57:36;93052.44;;;3.32;100.00
38558;BME280;24333;42.626;23.308;2022-12-29T03:06:52;93011.38;;;3.04;100.00
38558;BME280;24333;42.626;23.308;2022-12-29T03:09:43;93039.22;;;3.22;100.00
38558;BME280;24333;42.626;23.308;2022-12-29T15:33:08;93034.19;;;4.37;100.00
38558;BME280;24333;42.626;23.308;2022-12-29T15:39:28;93027.34;;;4.22;100.00
38558;BME280;24333;42.626;23.308;2022-12-29T15:42:09;93011.47;;;4.20;100.00
38558;BME280;24333;42.626;23.308;2022-12-29T17:45:24;93038.00;;;4.18;100.00
38558;BME280;24333;42.626;23.308;2022-12-29T17:47:51;93018.44;;;4.12;100.00
38558;BME280;24333;42.626;23.308;2022-12-29T17:50:27;93027.53;;;4.25;100.00
38558;BME280;24333;42.626;23.308;2022-12-29T17:53:04;93033.41;;;4.27;100.00
38558;BME280;24333;42.626;23.308;2022-12-29T17:55:32;93028.97;;;4.31;100.00
38558;BME280;24333;42.626;23.308;2022-12-29T17:58:01;93018.16;;;4.31;100.00
38558;BME280;24333;42.626;23.308;2022-12-29T18:00:31;93028.66;;;4.42;100.00
38558;BME280;24333;42.626;23.308;2022-12-29T18:03:20;93012.91;;;4.26;100.00
38558;BME280;24333;42.626;23.308;2022-12-29T18:05:47;93025.63;;;4.34;100.00
38558;BME280;24333;42.626;23.308;2022-12-29T18:08:15;93002.13;;;4.26;100.00
38558;BME280;24333;42.626;23.308;2022-12-29T18:10:43;93015.16;;;4.33;100.00
38558;BME280;24333;42.626;23.308;2022-12-29T18:13:19;93009.41;;;4.34;100.00
38558;BME280;24333;42.626;23.308;2022-12-29T18:15:51;92992.13;;;4.27;100.00
38558;BME280;24333;42.626;23.308;2022-12-29T18:18:24;93021.34;;;4.42;100.00
38558;BME280;24333;42.626;23.308;2022-12-29T18:20:57;93027.22;;;4.44;100.00
38558;BME280;24333;42.626;23.308;2022-12-29T18:23:29;93020.72;;;4.45;100.00
38558;BME280;24333;42.626;23.308;2022-12-29T18:26:22;93006.28;;;4.50;100.00
38558;BME280;24333;42.626;23.308;2022-12-29T18:29:03;92998.34;;;4.45;100.00
38558;BME280;24333;42.626;23.308;2022-12-29T18:31:34;92990.22;;;4.45;100.00
38558;BME280;24333;42.626;23.308;2022-12-29T18:34:06;93006.41;;;4.62;100.00
38558;BME280;24333;42.626;23.308;2022-12-29T18:36:32;93011.50;;;4.73;100.00
38558;BME280;24333;42.626;23.308;2022-12-29T18:39:01;93013.91;;;4.74;100.00
38558;BME280;24333;42.626;23.308;2022-12-29T18:41:48;93006.59;;;4.66;100.00
38558;BME280;24333;42.626;23.308;2022-12-29T18:44:28;92995.94;;;4.61;100.00
38558;BME280;24333;42.626;23.308;2022-12-29T18:47:08;93017.53;;;4.78;100.00
38558;BME280;24333;42.626;23.308;2022-12-29T18:49:34;93019.47;;;4.78;100.00
38558;BME280;24333;42.626;23.308;2022-12-29T18:57:16;93010.56;;;4.77;100.00
38558;BME280;24333;42.626;23.308;2022-12-29T18:59:56;93006.56;;;4.75;100.00
38558;BME280;24333;42.626;23.308;2022-12-29T19:02:45;93000.56;;;4.78;100.00
38558;BME280;24333;42.626;23.308;2022-12-29T19:05:35;93007.22;;;4.81;100.00
38558;BME280;24333;42.626;23.308;2022-12-29T19:08:01;93011.03;;;4.88;100.00
38558;BME280;24333;42.626;23.308;2022-12-29T19:10:30;93024.22;;;4.99;100.00
38558;BME280;24333;42.626;23.308;2022-12-29T19:13:01;92992.59;;;4.82;100.00
38558;BME280;24333;42.626;23.308;2022-12-29T19:15:33;92985.75;;;4.84;100.00
38558;BME280;24333;42.626;23.308;2022-12-29T19:18:05;93003.88;;;4.92;100.00
38558;BME280;24333;42.626;23.308;2022-12-29T19:20:43;93018.16;;;5.02;100.00
38558;BME280;24333;42.626;23.308;2022-12-29T19:23:33;93016.41;;;5.06;100.00
38558;BME280;24333;42.626;23.308;2022-12-29T19:26:02;93004.81;;;4.97;100.00
38558;BME280;24333;42.626;23.308;2022-12-29T19:28:32;92992.41;;;4.87;100.00
38558;BME280;24333;42.626;23.308;2022-12-29T19:30:59;93008.78;;;4.99;100.00
38558;BME280;24333;42.626;23.308;2022-12-29T19:33:31;92996.22;;;4.86;100.00
38558;BME280;24333;42.626;23.308;2022-12-29T19:36:00;92992.75;;;4.76;100.00
38558;BME280;24333;42.626;23.308;2022-12-29T19:38:27;93000.22;;;4.80;100.00
38558;BME280;24333;42.626;23.308;2022-12-29T19:40:56;93016.91;;;4.90;100.00
38558;BME280;24333;42.626;23.308;2022-12-29T19:43:38;93023.09;;;4.91;100.00
38558;BME280;24333;42.626;23.308;2022-12-29T19:46:22;93006.25;;;4.85;100.00
38558;BME280;24333;42.626;23.308;2022-12-29T19:48:53;92998.16;;;4.76;100.00
38558;BME280;24333;42.626;23.308;2022-12-29T19:51:24;93009.44;;;4.87;100.00
38558;BME280;24333;42.626;23.308;2022-12-29T19:53:54;93014.06;;;4.78;100.00
38558;BME280;24333;42.626;23.308;2022-12-29T20:01:52;93027.41;;;4.83;100.00
38558;BME280;24333;42.626;23.308;2022-12-29T20:04:18;93026.59;;;4.83;100.00
38558;BME280;24333;42.626;23.308;2022-12-29T20:07:12;92994.03;;;4.61;100.00
38558;BME280;24333;42.626;23.308;2022-12-29T20:09:49;93003.56;;;4.68;100.00
38558;BME280;24333;42.626;23.308;2022-12-29T20:12:37;93008.00;;;4.63;100.00
38558;BME280;24333;42.626;23.308;2022-12-29T20:48:54;93022.63;;;4.45;100.00
38558;BME280;24333;42.626;23.308;2022-12-29T20:52:14;93016.09;;;4.28;100.00
38558;BME280;24333;42.626;23.308;2022-12-29T20:54:58;93025.47;;;4.31;100.00
38558;BME280;24333;42.626;23.308;2022-12-29T20:57:39;93041.53;;;4.36;100.00
38558;BME280;24333;42.626;23.308;2022-12-29T21:00:27;93034.84;;;4.33;100.00
38558;BME280;24333;42.626;23.308;2022-12-29T21:02:58;93018.78;;;4.28;100.00
38558;BME280;24333;42.626;23.308;2022-12-29T21:08:35;93041.88;;;4.52;100.00
38558;BME280;24333;42.626;23.308;2022-12-29T21:11:17;93015.66;;;4.44;100.00
38558;BME280;24333;42.626;23.308;2022-12-29T21:13:47;93024.53;;;4.44;100.00
38558;BME280;24333;42.626;23.308;2022-12-29T21:16:13;93017.38;;;4.48;100.00
38558;BME280;24333;42.626;23.308;2022-12-29T21:18:49;93031.38;;;4.59;100.00
38558;BME280;24333;42.626;23.308;2022-12-29T21:36:58;93029.31;;;4.56;100.00
38558;BME280;24333;42.626;23.308;2022-12-29T21:39:37;93035.97;;;4.68;100.00
38558;BME280;24333;42.626;23.308;2022-12-29T21:42:14;93023.09;;;4.65;100.00
38558;BME280;24333;42.626;23.308;2022-12-29T21:44:48;93014.38;;;4.68;100.00
38558;BME280;24333;42.626;23.308;2022-12-29T21:48:12;92996.44;;;4.63;100.00
38558;BME280;24333;42.626;23.308;2022-12-29T21:51:20;92987.50;;;4.62;100.00
